createdAt,value
2019-02-21T00:00:48.216Z,24.47
2019-02-21T00:03:15.271Z,25.97
2019-02-21T00:05:42.201Z,24.90
2019-02-21T00:08:09.210Z,20.80
2019-02-21T00:10:36.138Z,22.77
2019-02-21T00:13:03.101Z,22.03
2019-02-21T00:15:30.023Z,24.60
2019-02-21T00:17:56.959Z,26.67
2019-02-21T00:20:23.891Z,26.43
2019-02-21T00:22:50.954Z,26.37
2019-02-21T00:25:17.863Z,21.70
2019-02-21T00:27:44.839Z,19.93
2019-02-21T00:30:11.785Z,26.03
2019-02-21T00:32:38.735Z,28.07
2019-02-21T00:35:05.664Z,23.30
2019-02-21T00:37:32.584Z,29.70
2019-02-21T00:39:59.525Z,25.50
2019-02-21T00:42:26.421Z,27.77
2019-02-21T00:44:53.360Z,22.10
2019-02-21T00:47:20.298Z,23.17
2019-02-21T00:49:47.233Z,20.83
2019-02-21T00:52:14.117Z,23.27
2019-02-21T00:54:41.055Z,24.00
2019-02-21T00:57:08.037Z,24.73
2019-02-21T00:59:34.998Z,23.83
2019-02-21T01:02:01.893Z,23.97
2019-02-21T01:04:28.856Z,28.23
2019-02-21T01:06:56.635Z,25.53
2019-02-21T01:09:23.588Z,28.80
2019-02-21T01:11:50.481Z,28.30
2019-02-21T01:14:17.438Z,23.40
2019-02-21T01:16:44.481Z,24.90
2019-02-21T01:19:11.461Z,26.83
2019-02-21T01:21:38.411Z,26.80
2019-02-21T01:24:05.399Z,31.53
2019-02-21T01:26:32.309Z,25.97
2019-02-21T01:28:59.274Z,30.43
2019-02-21T01:31:26.174Z,30.27
2019-02-21T01:33:53.106Z,23.43
2019-02-21T01:36:20.059Z,28.30
2019-02-21T01:38:47.026Z,23.83
2019-02-21T01:41:13.987Z,22.37
2019-02-21T01:43:40.918Z,23.73
2019-02-21T01:46:07.838Z,27.70
2019-02-21T01:48:34.937Z,26.43
2019-02-21T01:51:01.836Z,26.50
2019-02-21T01:53:28.761Z,27.73
2019-02-21T01:55:55.707Z,21.30
2019-02-21T01:58:22.676Z,26.20
2019-02-21T02:00:49.611Z,25.77
2019-02-21T02:03:16.545Z,28.73
2019-02-21T02:05:43.455Z,26.33
2019-02-21T02:08:10.368Z,25.83
2019-02-21T02:10:37.306Z,24.90
2019-02-21T02:13:04.202Z,29.27
2019-02-21T02:15:31.832Z,23.60
2019-02-21T02:17:58.748Z,35.10
2019-02-21T02:20:25.695Z,31.03
2019-02-21T02:22:52.668Z,30.13
2019-02-21T02:25:19.680Z,30.77
2019-02-21T02:27:46.616Z,31.13
2019-02-21T02:30:13.651Z,31.33
2019-02-21T02:32:40.546Z,28.47
2019-02-21T02:35:07.470Z,34.53
2019-02-21T02:37:34.389Z,31.20
2019-02-21T02:40:01.329Z,29.27
2019-02-21T02:42:28.204Z,28.57
2019-02-21T02:44:55.148Z,24.90
2019-02-21T02:47:22.055Z,27.77
2019-02-21T02:49:49.002Z,32.10
2019-02-21T02:52:15.910Z,30.70
2019-02-21T02:54:42.855Z,26.33
2019-02-21T02:57:09.778Z,31.07
2019-02-21T02:59:41.027Z,29.40
2019-02-21T03:02:05.574Z,27.60
2019-02-21T03:04:32.501Z,28.30
2019-02-21T03:06:59.504Z,28.97
2019-02-21T03:09:26.406Z,31.63
2019-02-21T03:11:53.324Z,31.27
2019-02-21T03:14:20.251Z,32.47
2019-02-21T03:16:47.172Z,29.50
2019-02-21T03:19:14.085Z,30.83
2019-02-21T03:21:41.028Z,26.77
2019-02-21T03:24:07.945Z,30.10
2019-02-21T03:26:34.882Z,31.87
2019-02-21T03:29:01.824Z,28.00
2019-02-21T03:31:28.747Z,34.47
2019-02-21T03:33:55.659Z,34.87
2019-02-21T03:36:22.665Z,32.40
2019-02-21T03:38:49.582Z,29.00
2019-02-21T03:41:16.492Z,30.10
2019-02-21T03:43:43.409Z,39.70
2019-02-21T03:46:10.342Z,37.13
2019-02-21T03:48:37.739Z,38.27
2019-02-21T03:51:04.834Z,29.13
2019-02-21T03:53:31.880Z,30.37
2019-02-21T03:55:59.027Z,27.17
2019-02-21T03:58:26.064Z,34.60
2019-02-21T04:00:53.491Z,31.30
2019-02-21T04:03:20.385Z,32.40
2019-02-21T04:05:47.308Z,34.60
2019-02-21T04:08:14.209Z,33.23
2019-02-21T04:10:41.099Z,33.17
2019-02-21T04:13:08.036Z,28.67
2019-02-21T04:15:34.905Z,33.43
2019-02-21T04:18:01.905Z,39.10
2019-02-21T04:20:28.823Z,37.80
2019-02-21T04:22:55.780Z,28.10
2019-02-21T04:25:22.687Z,28.37
2019-02-21T04:27:49.633Z,40.37
2019-02-21T04:30:16.547Z,35.13
2019-02-21T04:32:43.487Z,34.50
2019-02-21T04:35:10.364Z,32.53
2019-02-21T04:37:37.277Z,26.60
2019-02-21T04:40:04.561Z,31.60
2019-02-21T04:42:31.522Z,29.30
2019-02-21T04:44:58.442Z,33.33
2019-02-21T04:47:25.373Z,29.87
2019-02-21T04:49:52.261Z,39.20
2019-02-21T04:52:19.197Z,31.70
2019-02-21T04:54:46.104Z,33.90
2019-02-21T04:57:13.048Z,30.27
2019-02-21T04:59:39.923Z,33.50
2019-02-21T05:02:06.840Z,33.87
2019-02-21T05:04:33.794Z,31.13
2019-02-21T05:07:00.747Z,33.53
2019-02-21T05:09:27.652Z,35.63
2019-02-21T05:11:54.583Z,39.53
2019-02-21T05:14:21.467Z,34.43
2019-02-21T05:16:48.408Z,37.53
2019-02-21T05:19:15.326Z,37.67
2019-02-21T05:21:42.230Z,33.77
2019-02-21T05:24:09.181Z,34.77
2019-02-21T05:26:45.780Z,34.67
2019-02-21T05:29:13.255Z,35.20
2019-02-21T05:31:47.858Z,35.07
2019-02-21T05:34:26.253Z,37.13
2019-02-21T05:37:00.654Z,35.73
2019-02-21T05:39:34.296Z,34.40
2019-02-21T05:42:20.866Z,37.23
2019-02-21T05:45:11.094Z,44.50
2019-02-21T05:47:46.827Z,34.07
2019-02-21T05:50:20.358Z,37.80
2019-02-21T05:53:12.725Z,37.27
2019-02-21T05:55:48.169Z,36.90
2019-02-21T05:58:27.043Z,38.50
2019-02-21T06:01:02.819Z,38.93
2019-02-21T06:03:50.087Z,37.43
2019-02-21T06:06:34.944Z,34.90
2019-02-21T06:09:09.773Z,37.83
2019-02-21T06:11:52.782Z,41.37
2019-02-21T06:14:39.329Z,38.90
2019-02-21T06:17:24.469Z,37.80
2019-02-21T06:20:17.956Z,36.73
2019-02-21T06:23:24.941Z,37.13
2019-02-21T06:26:10.233Z,38.30
2019-02-21T06:28:59.513Z,35.97
2019-02-21T06:31:26.431Z,35.97
2019-02-21T06:33:53.412Z,41.33
2019-02-21T06:36:20.314Z,40.93
2019-02-21T06:38:47.249Z,48.37
2019-02-21T06:41:14.177Z,34.43
2019-02-21T06:43:41.119Z,45.10
2019-02-21T06:46:08.034Z,40.70
2019-02-21T06:48:35.042Z,42.83
2019-02-21T06:51:01.956Z,37.77
2019-02-21T06:53:28.908Z,41.47
2019-02-21T06:55:55.804Z,43.47
2019-02-21T06:58:22.754Z,40.87
2019-02-21T07:00:49.630Z,33.57
2019-02-21T07:03:16.848Z,36.43
2019-02-21T07:05:43.737Z,40.43
2019-02-21T07:08:10.637Z,40.83
2019-02-21T07:10:37.573Z,37.60
2019-02-21T07:13:04.485Z,42.00
2019-02-21T07:15:31.433Z,36.90
2019-02-21T07:17:58.324Z,41.20
2019-02-21T07:20:25.264Z,39.27
2019-02-21T07:22:52.194Z,35.63
2019-02-21T07:25:32.893Z,41.63
2019-02-21T07:28:10.931Z,90.93
2019-02-21T07:30:28.765Z,37.87
2019-02-21T07:32:55.672Z,38.43
2019-02-21T07:35:22.672Z,37.90
2019-02-21T07:37:49.589Z,38.93
2019-02-21T07:40:20.149Z,40.87
2019-02-21T07:42:47.982Z,40.70
2019-02-21T07:45:14.537Z,39.87
2019-02-21T07:47:41.538Z,38.00
2019-02-21T07:50:08.485Z,36.40
2019-02-21T07:52:35.390Z,36.93
2019-02-21T07:55:02.680Z,38.17
2019-02-21T07:57:29.643Z,35.30
2019-02-21T07:59:56.587Z,43.50
2019-02-21T08:02:23.501Z,37.10
2019-02-21T08:04:50.425Z,35.30
2019-02-21T08:07:17.318Z,41.27
2019-02-21T08:09:44.277Z,51.43
2019-02-21T08:12:11.270Z,37.23
2019-02-21T08:14:38.212Z,36.37
2019-02-21T08:17:05.108Z,43.43
2019-02-21T08:19:32.076Z,38.47
2019-02-21T08:22:00.139Z,37.87
2019-02-21T08:24:27.472Z,40.23
2019-02-21T08:26:54.398Z,41.93
2019-02-21T08:29:21.314Z,42.97
2019-02-21T08:31:48.269Z,39.37
2019-02-21T08:34:37.541Z,38.90
2019-02-21T08:37:04.456Z,52.63
2019-02-21T08:39:31.389Z,42.80
2019-02-21T08:41:58.318Z,36.40
2019-02-21T08:44:25.251Z,40.17
2019-02-21T08:46:53.525Z,42.87
2019-02-21T08:49:20.637Z,38.50
2019-02-21T08:51:47.795Z,37.20
2019-02-21T08:54:14.709Z,39.40
2019-02-21T08:56:41.652Z,39.07
2019-02-21T08:59:08.569Z,36.10
2019-02-21T09:01:35.515Z,37.20
2019-02-21T09:04:09.928Z,37.83
2019-02-21T09:06:31.249Z,37.30
2019-02-21T09:08:58.151Z,39.30
2019-02-21T09:11:25.196Z,36.67
2019-02-21T09:13:52.088Z,35.67
2019-02-21T09:16:19.137Z,37.03
2019-02-21T09:18:46.130Z,38.40
2019-02-21T09:21:13.104Z,33.77
2019-02-21T09:23:40.041Z,44.13
2019-02-21T09:26:06.942Z,35.47
2019-02-21T09:28:33.836Z,37.97
2019-02-21T09:31:00.772Z,37.97
2019-02-21T09:33:27.854Z,36.40
2019-02-21T09:35:56.750Z,34.07
2019-02-21T09:38:23.784Z,39.10
2019-02-21T09:40:50.699Z,48.47
2019-02-21T09:43:17.620Z,38.67
2019-02-21T09:45:44.516Z,38.37
2019-02-21T09:48:12.086Z,41.50
2019-02-21T09:50:39.154Z,42.00
2019-02-21T09:53:06.098Z,39.83
2019-02-21T09:55:33.013Z,37.60
2019-02-21T09:58:05.155Z,39.47
2019-02-21T10:00:35.837Z,45.20
2019-02-21T10:03:06.481Z,50.70
2019-02-21T10:05:34.513Z,41.03
2019-02-21T10:08:01.954Z,40.13
2019-02-21T10:10:29.254Z,49.00
2019-02-21T10:12:56.373Z,45.37
2019-02-21T10:15:24.689Z,39.33
2019-02-21T10:17:51.927Z,40.80
2019-02-21T10:20:21.074Z,43.77
2019-02-21T10:22:48.296Z,40.80
2019-02-21T10:25:22.967Z,44.27
2019-02-21T10:27:49.855Z,43.70
2019-02-21T10:30:18.189Z,48.83
2019-02-21T10:32:45.184Z,48.20
2019-02-21T10:35:12.093Z,47.33
2019-02-21T10:37:39.013Z,51.20
2019-02-21T10:40:07.348Z,44.83
2019-02-21T10:42:34.329Z,39.80
2019-02-21T10:45:03.431Z,42.20
2019-02-21T10:47:30.093Z,47.97
2019-02-21T10:49:57.004Z,46.47
2019-02-21T10:52:24.124Z,46.30
2019-02-21T10:54:51.068Z,46.90
2019-02-21T10:57:18.015Z,51.23
2019-02-21T10:59:46.964Z,46.53
2019-02-21T11:02:15.924Z,50.53
2019-02-21T11:04:54.142Z,54.10
2019-02-21T11:07:11.770Z,56.00
2019-02-21T11:09:38.684Z,53.27
2019-02-21T11:12:05.588Z,51.33
2019-02-21T11:14:32.506Z,45.20
2019-02-21T11:16:59.513Z,51.63
2019-02-21T11:19:26.468Z,55.63
2019-02-21T11:21:53.343Z,54.30
2019-02-21T11:24:20.285Z,56.23
2019-02-21T11:26:47.161Z,58.30
2019-02-21T11:29:14.104Z,49.03
2019-02-21T11:31:41.016Z,43.20
2019-02-21T11:34:07.934Z,49.63
2019-02-21T11:36:34.816Z,40.57
2019-02-21T11:39:01.729Z,41.20
2019-02-21T11:41:28.655Z,46.53
2019-02-21T11:43:55.608Z,45.77
2019-02-21T11:46:22.494Z,41.87
2019-02-21T11:48:49.404Z,46.67
2019-02-21T11:51:16.286Z,44.07
2019-02-21T11:53:43.256Z,42.93
2019-02-21T11:56:10.150Z,44.23
2019-02-21T11:58:37.084Z,45.53
2019-02-21T12:01:07.097Z,45.87
2019-02-21T12:03:34.152Z,45.03
2019-02-21T12:06:01.023Z,46.43
2019-02-21T12:08:27.943Z,39.93
2019-02-21T12:10:54.852Z,39.17
2019-02-21T12:13:21.763Z,38.83
2019-02-21T12:15:48.676Z,37.47
2019-02-21T12:18:15.585Z,44.50
2019-02-21T12:20:42.499Z,41.83
2019-02-21T12:23:09.812Z,46.60
2019-02-21T12:25:36.742Z,36.53
2019-02-21T12:28:03.647Z,41.83
2019-02-21T12:30:33.139Z,46.33
2019-02-21T12:32:59.382Z,43.43
2019-02-21T12:35:29.718Z,41.40
2019-02-21T12:37:55.253Z,40.13
2019-02-21T12:40:22.276Z,37.63
2019-02-21T12:42:49.172Z,42.37
2019-02-21T12:45:17.385Z,34.00
2019-02-21T12:47:50.626Z,38.90
2019-02-21T12:50:13.346Z,33.43
2019-02-21T12:52:40.237Z,37.87
2019-02-21T12:55:07.624Z,45.20
2019-02-21T12:57:34.562Z,36.97
2019-02-21T13:00:01.509Z,33.47
2019-02-21T13:02:28.403Z,37.10
2019-02-21T13:04:55.340Z,31.53
2019-02-21T13:07:22.215Z,33.13
2019-02-21T13:09:49.244Z,35.37
2019-02-21T13:12:16.120Z,34.20
2019-02-21T13:14:43.298Z,35.13
2019-02-21T13:17:10.180Z,37.03
2019-02-21T13:19:37.165Z,33.20
2019-02-21T13:22:04.061Z,33.03
2019-02-21T13:24:31.010Z,36.60
2019-02-21T13:26:58.059Z,31.80
2019-02-21T13:29:24.971Z,36.10
2019-02-21T13:31:51.843Z,33.80
2019-02-21T13:34:18.761Z,34.00
2019-02-21T13:36:45.669Z,28.90
2019-02-21T13:39:12.643Z,32.23
2019-02-21T13:41:39.588Z,40.47
2019-02-21T13:44:06.480Z,29.93
2019-02-21T13:46:37.351Z,28.30
2019-02-21T13:49:02.353Z,32.90
2019-02-21T13:51:29.293Z,33.57
2019-02-21T13:53:56.169Z,31.60
2019-02-21T13:56:23.071Z,29.20
2019-02-21T13:58:49.955Z,31.80
2019-02-21T14:01:16.891Z,35.30
2019-02-21T14:03:43.804Z,33.63
2019-02-21T14:06:10.745Z,36.13
2019-02-21T14:08:37.631Z,33.10
2019-02-21T14:11:04.580Z,33.33
2019-02-21T14:13:31.494Z,29.50
2019-02-21T14:15:58.428Z,29.13
2019-02-21T14:18:25.626Z,31.47
2019-02-21T14:20:52.639Z,32.33
2019-02-21T14:23:19.512Z,29.33
2019-02-21T14:25:46.697Z,37.60
2019-02-21T14:28:13.650Z,29.03
2019-02-21T14:30:40.553Z,34.10
2019-02-21T14:33:07.451Z,33.93
2019-02-21T14:35:34.373Z,30.63
2019-02-21T14:38:01.345Z,28.53
2019-02-21T14:40:28.268Z,26.40
2019-02-21T14:42:55.167Z,30.93
2019-02-21T14:45:22.192Z,23.87
2019-02-21T14:47:49.106Z,30.97
2019-02-21T14:50:16.288Z,22.00
2019-02-21T14:52:43.231Z,26.53
2019-02-21T14:55:11.569Z,20.40
2019-02-21T14:57:41.075Z,24.97
2019-02-21T15:00:14.005Z,23.70
2019-02-21T15:02:40.978Z,25.60
2019-02-21T15:05:10.020Z,24.17
2019-02-21T15:07:36.689Z,24.63
2019-02-21T15:10:03.822Z,23.17
2019-02-21T15:12:30.766Z,22.80
2019-02-21T15:14:57.661Z,23.30
2019-02-21T15:17:24.584Z,21.73
2019-02-21T15:19:51.485Z,22.83
2019-02-21T15:22:18.432Z,20.87
2019-02-21T15:24:45.343Z,26.70
2019-02-21T15:27:12.411Z,22.50
2019-02-21T15:29:41.579Z,24.50
2019-02-21T15:32:11.633Z,22.90
2019-02-21T15:34:36.953Z,24.03
2019-02-21T15:37:03.901Z,26.83
2019-02-21T15:39:30.865Z,23.63
2019-02-21T15:41:57.788Z,19.93
2019-02-21T15:44:24.687Z,24.03
2019-02-21T15:46:51.619Z,23.47
2019-02-21T15:49:18.601Z,20.07
2019-02-21T15:51:45.492Z,21.60
2019-02-21T15:54:12.669Z,22.37
2019-02-21T15:56:39.721Z,32.30
2019-02-21T15:59:06.611Z,25.33
2019-02-21T16:01:33.676Z,25.77
2019-02-21T16:04:00.587Z,24.53
2019-02-21T16:06:27.524Z,21.97
2019-02-21T16:08:55.621Z,21.23
2019-02-21T16:11:22.747Z,18.40
2019-02-21T16:14:02.064Z,20.40
2019-02-21T16:16:18.533Z,20.20
2019-02-21T16:18:45.683Z,20.30
2019-02-21T16:21:12.740Z,20.00
2019-02-21T16:23:39.644Z,20.23
2019-02-21T16:26:06.572Z,18.00
2019-02-21T16:28:33.574Z,18.17
2019-02-21T16:31:00.551Z,17.33
2019-02-21T16:33:27.496Z,15.07
2019-02-21T16:35:54.410Z,16.07
2019-02-21T16:38:21.341Z,16.77
2019-02-21T16:40:48.220Z,17.77
2019-02-21T16:43:15.231Z,19.37
2019-02-21T16:45:46.359Z,15.50
2019-02-21T16:48:11.093Z,14.57
2019-02-21T16:50:38.031Z,17.07
2019-02-21T16:53:05.000Z,18.23
2019-02-21T16:55:31.998Z,13.63
2019-02-21T16:57:58.942Z,20.63
2019-02-21T17:00:37.269Z,15.77
2019-02-21T17:02:55.101Z,11.30
2019-02-21T17:05:22.127Z,13.20
2019-02-21T17:07:49.068Z,18.13
2019-02-21T17:10:16.584Z,16.23
2019-02-21T17:12:43.532Z,12.77
2019-02-21T17:15:11.461Z,14.20
2019-02-21T17:17:38.411Z,13.40
2019-02-21T17:20:07.001Z,15.43
2019-02-21T17:22:34.008Z,17.10
2019-02-21T17:25:00.954Z,17.73
2019-02-21T17:27:27.870Z,19.27
2019-02-21T17:29:54.784Z,20.17
2019-02-21T17:32:21.655Z,21.50
2019-02-21T17:34:48.568Z,23.73
2019-02-21T17:37:24.642Z,21.20
2019-02-21T17:39:44.301Z,22.27
2019-02-21T17:42:11.389Z,20.23
2019-02-21T17:44:38.536Z,21.70
2019-02-21T17:47:05.511Z,29.20
2019-02-21T17:49:33.315Z,22.97
2019-02-21T17:52:00.192Z,29.77
2019-02-21T17:54:27.867Z,26.93
2019-02-21T17:56:54.934Z,20.97
2019-02-21T17:59:21.850Z,24.67
2019-02-21T18:01:48.757Z,25.63
2019-02-21T18:04:15.833Z,24.60
2019-02-21T18:06:42.926Z,24.37
2019-02-21T18:09:09.839Z,25.13
2019-02-21T18:11:36.777Z,34.80
2019-02-21T18:14:04.283Z,27.93
2019-02-21T18:16:31.396Z,27.30
2019-02-21T18:18:58.318Z,25.60
2019-02-21T18:21:25.204Z,28.20
2019-02-21T18:23:52.213Z,31.60
2019-02-21T18:26:19.273Z,26.60
2019-02-21T18:28:46.415Z,32.27
2019-02-21T18:31:13.295Z,31.60
2019-02-21T18:33:40.216Z,36.47
2019-02-21T18:36:07.178Z,27.67
2019-02-21T18:38:34.198Z,29.83
2019-02-21T18:41:01.143Z,28.97
2019-02-21T18:43:28.050Z,33.60
2019-02-21T18:45:57.437Z,32.80
2019-02-21T18:48:23.766Z,28.90
2019-02-21T18:50:50.688Z,34.50
2019-02-21T18:53:17.577Z,41.60
2019-02-21T18:55:44.500Z,45.77
2019-02-21T18:58:11.423Z,38.13
2019-02-21T19:00:38.371Z,40.87
2019-02-21T19:03:05.279Z,39.67
2019-02-21T19:05:36.017Z,39.97
2019-02-21T19:08:05.349Z,45.33
2019-02-21T19:10:29.834Z,48.37
2019-02-21T19:12:56.783Z,40.63
2019-02-21T19:15:24.234Z,44.50
2019-02-21T19:17:51.211Z,42.53
2019-02-21T19:20:18.168Z,41.37
2019-02-21T19:22:45.035Z,45.23
2019-02-21T19:25:13.135Z,41.17
2019-02-21T19:27:40.018Z,53.10
2019-02-21T19:30:11.147Z,41.20
2019-02-21T19:32:38.040Z,43.27
2019-02-21T19:35:05.838Z,42.00
2019-02-21T19:37:32.754Z,38.47
2019-02-21T19:39:59.659Z,46.53
2019-02-21T19:42:26.743Z,47.03
2019-02-21T19:44:53.628Z,41.63
2019-02-21T19:47:20.637Z,40.87
2019-02-21T19:49:47.543Z,42.30
2019-02-21T19:52:14.556Z,49.20
2019-02-21T19:54:41.430Z,45.53
2019-02-21T19:57:08.354Z,39.43
2019-02-21T19:59:35.244Z,46.00
2019-02-21T20:02:02.231Z,47.03
2019-02-21T20:04:29.120Z,39.00
2019-02-21T20:06:56.053Z,40.93
2019-02-21T20:09:23.116Z,40.37
2019-02-21T20:11:50.142Z,44.03
2019-02-21T20:14:17.460Z,37.50
2019-02-21T20:16:45.871Z,43.60
2019-02-21T20:19:13.182Z,35.80
2019-02-21T20:21:40.286Z,39.43
2019-02-21T20:24:07.290Z,38.50
2019-02-21T20:26:34.293Z,37.07
2019-02-21T20:29:01.298Z,39.70
2019-02-21T20:31:28.290Z,39.87
2019-02-21T20:33:55.185Z,42.90
2019-02-21T20:36:22.146Z,50.17
2019-02-21T20:38:49.196Z,48.23
2019-02-21T20:41:16.205Z,43.10
2019-02-21T20:43:43.142Z,41.07
2019-02-21T20:46:10.057Z,43.50
2019-02-21T20:48:37.192Z,47.33
2019-02-21T20:51:04.169Z,45.97
2019-02-21T20:53:31.069Z,44.93
2019-02-21T20:55:58.268Z,48.17
2019-02-21T20:58:25.169Z,44.90
2019-02-21T21:00:52.039Z,53.97
2019-02-21T21:03:18.955Z,43.10
2019-02-21T21:05:45.879Z,48.10
2019-02-21T21:08:12.944Z,46.60
2019-02-21T21:10:39.821Z,49.07
2019-02-21T21:13:06.778Z,56.00
2019-02-21T21:15:33.696Z,53.10
2019-02-21T21:18:00.649Z,53.00
2019-02-21T21:20:28.244Z,50.73
2019-02-21T21:22:55.327Z,56.63
2019-02-21T21:25:22.243Z,53.53
2019-02-21T21:27:49.163Z,56.70
2019-02-21T21:30:16.091Z,50.30
2019-02-21T21:32:43.035Z,58.83
2019-02-21T21:35:09.931Z,56.93
2019-02-21T21:37:36.928Z,53.10
2019-02-21T21:40:05.062Z,53.67
2019-02-21T21:42:32.095Z,54.20
2019-02-21T21:44:58.987Z,47.93
2019-02-21T21:47:25.907Z,58.60
2019-02-21T21:49:52.873Z,51.47
2019-02-21T21:52:19.893Z,53.30
2019-02-21T21:54:46.917Z,57.97
2019-02-21T21:57:13.967Z,57.50
2019-02-21T21:59:40.871Z,52.87
2019-02-21T22:02:08.912Z,56.30
2019-02-21T22:04:35.856Z,57.50
2019-02-21T22:07:02.790Z,62.60
2019-02-21T22:09:29.723Z,66.80
2019-02-21T22:11:56.680Z,59.27
2019-02-21T22:14:23.954Z,61.57
2019-02-21T22:16:50.865Z,60.63
2019-02-21T22:19:17.771Z,53.60
2019-02-21T22:21:44.684Z,56.93
2019-02-21T22:24:11.710Z,56.53
2019-02-21T22:26:38.574Z,59.27
2019-02-21T22:29:05.639Z,58.20
2019-02-21T22:31:32.557Z,57.00
2019-02-21T22:33:59.475Z,60.80
2019-02-21T22:36:26.423Z,58.87
2019-02-21T22:38:53.600Z,63.27
2019-02-21T22:41:20.532Z,62.23
2019-02-21T22:43:47.483Z,56.07
2019-02-21T22:46:14.380Z,57.87
2019-02-21T22:48:47.207Z,58.13
2019-02-21T22:51:10.119Z,64.00
2019-02-21T22:53:37.222Z,70.07
2019-02-21T22:56:04.110Z,65.90
2019-02-21T22:58:31.027Z,60.37
2019-02-21T23:01:26.568Z,69.20
2019-02-21T23:04:13.141Z,75.37
2019-02-21T23:06:52.854Z,68.80
2019-02-21T23:09:27.487Z,69.73
2019-02-21T23:11:50.801Z,68.60
2019-02-21T23:14:19.440Z,67.67
2019-02-21T23:16:46.524Z,67.50
2019-02-21T23:19:13.826Z,76.77
2019-02-21T23:21:40.726Z,68.10
2019-02-21T23:24:07.694Z,69.50
2019-02-21T23:26:34.589Z,74.83
2019-02-21T23:29:01.520Z,76.03
2019-02-21T23:31:28.416Z,71.17
2019-02-21T23:33:57.166Z,77.37
2019-02-21T23:36:24.081Z,65.37
2019-02-21T23:38:51.019Z,65.83
2019-02-21T23:41:17.935Z,68.67
2019-02-21T23:43:47.165Z,65.10
2019-02-21T23:46:13.805Z,61.40
2019-02-21T23:48:40.823Z,57.80
2019-02-21T23:51:07.750Z,63.13
2019-02-21T23:53:34.696Z,62.93
2019-02-21T23:56:01.572Z,62.43
2019-02-21T23:58:28.484Z,64.67
